Latest Coastal Weather Observations for Redcliffe

IDQ60701

Issued at 8:43 pm EST Thursday 30 May 2024 (issued every 10 minutes, with the page automatically refreshed every 10 minutes)

About coastal observations | Map of coastal stations | Coastal observations for QLD | Marine services | Other Formats
Station Details ID: 040958 Name: REDCLIFFE Lat: -27.22 Lon: 153.09 Height: 12.6 m
Data from the previous 72 hours. | See also: Recent months at Redcliffe
Date/Time
EST
Wind Sea
Height
m
Swell Vis
km
Cloud Weather Temp
°C
Press
MSL
hPa
Rain since
9am
mm
Dir  Spd
kts
Gust
kts
Height
m
Period
s
Dir
30/08:30pm SW 6 7 - - - - - - - 17.9 1025.8 0.0
30/08:00pm SW 6 10 - - - - - - - 17.8 1025.8 0.0
30/07:30pm WSW 7 8 - - - - - - - 18.1 1025.6 0.0
30/07:00pm SW 5 7 - - - - - - - 18.2 1025.4 0.0
30/06:30pm S 6 7 - - - - - - - 18.8 1025.1 0.0
30/06:00pm SSE 5 6 - - - - - - - 19.1 1025.1 0.0
30/05:30pm S 6 7 - - - - - - - 19.1 1024.8 0.0
30/05:00pm S 6 8 - - - - - - - 19.3 1024.5 0.0
30/04:30pm S 7 8 - - - - - - - 19.6 1024.5 0.0
30/04:00pm S 7 8 - - - - - - - 20.2 1024.5 0.0
30/03:30pm S 7 9 - - - - - - - 20.4 1024.4 0.0
30/03:00pm SSE 9 10 - - - - - - - 20.5 1024.5 0.0
30/02:30pm SSE 9 11 - - - - - - - 20.5 1024.9 0.0
30/02:00pm SSE 12 14 - - - - - - - 21.5 1024.8 0.0
30/01:30pm SE 10 14 - - - - - - - 21.5 1025.2 0.0
30/01:00pm SE 14 19 - - - - - - - 21.2 1025.4 0.0
30/12:30pm SSE 9 10 - - - - - - - 21.5 1026.0 0.0
30/12:00pm S 6 8 - - - - - - - 22.1 1026.4 0.0
30/11:30am S 7 7 - - - - - - - 21.8 1027.2 0.0
30/11:00am SSE 8 10 - - - - - - - 21.3 1027.4 0.0
30/10:30am SSE 7 10 - - - - - - - 21.2 1027.7 0.0
30/10:00am SSE 6 7 - - - - - - - 21.1 1028.0 0.0
30/09:30am S 8 9 - - - - - - - 19.9 1028.4 0.0
30/09:00am SSW 7 9 - - - - - - - 19.6 1028.1 14.0
30/08:30am SSW 7 10 - - - - - - - 19.5 1028.1 14.0
30/08:00am SSW 8 10 - - - - - - - 18.1 1027.8 14.0
30/07:30am SSW 9 12 - - - - - - - 17.3 1027.5 14.0
30/07:00am SSW 8 11 - - - - - - - 16.6 1027.2 14.0
30/06:30am SSW 8 10 - - - - - - - 16.3 1027.1 14.0
30/06:00am SSW 8 10 - - - - - - - 16.5 1026.7 14.0
30/05:30am SSW 9 12 - - - - - - - 16.5 1026.4 14.0
30/05:00am SSW 8 11 - - - - - - - 16.6 1026.0 14.0
30/04:30am SSW 7 9 - - - - - - - 16.7 1026.0 14.0
30/04:00am SSW 7 9 - - - - - - - 16.6 1025.8 14.0
30/03:30am SW 8 10 - - - - - - - 16.7 1025.8 14.0
30/03:00am WSW 8 10 - - - - - - - 16.6 1025.8 14.0
30/02:30am SW 8 10 - - - - - - - 16.9 1026.1 14.0
30/02:00am SW 7 10 - - - - - - - 17.2 1026.1 14.0
30/01:30am S 5 5 - - - - - - - 17.4 1026.4 14.0
30/01:00am ESE 7 9 - - - - - - - 17.8 1026.8 14.0
30/12:30am E 15 18 - - - - - - - 17.8 1027.3 14.0
30/12:21am E 9 18 - - - - - - - 17.5 1027.5 14.0
30/12:00am SW 4 7 - - - - - - Rain 17.4 1027.3 6.0
 
Date/Time
EST
Wind Sea
Height
m
Swell Vis
km
Cloud Weather Temp
°C
Press
MSL
hPa
Rain since
9am
mm
Dir  Spd
kts
Gust
kts
Height
m
Period
s
Dir
29/11:30pm SW 6 9 - - - - - - - 18.2 1027.4 0.2
29/11:00pm SW 7 9 - - - - - - - 18.5 1027.2 0.0
29/10:30pm S 7 9 - - - - - - - 18.8 1027.6 0.0
29/10:00pm SSW 7 8 - - - - - - - 18.5 1027.5 0.0
29/09:30pm S 8 9 - - - - - - - 18.5 1027.7 0.0
29/09:00pm SE 10 14 - - - - - - - 19.4 1027.7 0.0
29/08:30pm S 8 9 - - - - - - - 19.4 1027.6 0.0
29/08:00pm SSE 9 10 - - - - - - - 19.3 1027.5 0.0
29/07:30pm SSE 10 11 - - - - - - - 19.9 1027.4 0.0
29/07:00pm SSE 10 11 - - - - - - - 20.1 1027.3 0.0
29/06:30pm S 8 10 - - - - - - - 19.9 1027.1 0.0
29/06:00pm SSE 8 9 - - - - - - - 19.9 1026.9 0.0
29/05:30pm SSE 8 9 - - - - - - - 20.0 1026.6 0.0
29/05:00pm SSE 7 8 - - - - - - - 20.4 1026.5 0.0
29/04:30pm SSE 9 12 - - - - - - - 21.0 1026.3 0.0
29/04:00pm SSE 11 13 - - - - - - - 21.4 1025.9 0.0
29/03:30pm SSE 12 15 - - - - - - - 21.8 1025.7 0.0
29/03:00pm SSE 12 15 - - - - - - - 22.0 1025.8 0.0
29/02:30pm SSE 14 16 - - - - - - - 22.6 1025.8 0.0
29/02:00pm SSE 13 16 - - - - - - - 22.7 1025.8 0.0
29/01:30pm SSE 10 15 - - - - - - - 22.2 1025.9 0.0
29/01:00pm SSE 10 11 - - - - - - - 22.6 1026.0 0.0
29/12:30pm SSE 14 16 - - - - - - - 22.9 1026.2 0.0
29/12:00pm SSE 11 13 - - - - - - - 22.4 1026.6 0.0
29/11:30am SSE 13 15 - - - - - - - 23.1 1027.1 0.0
29/11:00am SSE 12 14 - - - - - - - 23.2 1027.5 0.0
29/10:30am S 12 14 - - - - - - - 22.5 1027.8 0.0
29/10:00am S 13 15 - - - - - - - 21.8 1028.1 0.0
29/09:30am S 12 15 - - - - - - - 21.2 1028.2 0.0
29/09:00am S 9 12 - - - - - - - 19.9 1028.1 0.0
29/08:30am SSW 10 14 - - - - - - - 18.9 1027.9 0.0
29/08:00am SSW 9 14 - - - - - - - 18.0 1027.9 0.0
29/07:30am SW 8 10 - - - - - - - 16.9 1027.7 0.0
29/07:00am SSW 8 12 - - - - - - - 15.9 1027.4 0.0
29/06:30am SSW 8 10 - - - - - - - 16.0 1027.1 0.0
29/06:00am SSW 9 13 - - - - - - - 16.3 1027.1 0.0
29/05:30am SSW 9 13 - - - - - - - 16.5 1026.7 0.0
29/05:00am SSW 10 14 - - - - - - - 16.5 1026.4 0.0
29/04:30am SSW 10 15 - - - - - - - 16.2 1026.3 0.0
29/04:00am SSW 10 14 - - - - - - - 16.3 1026.3 0.0
29/03:30am SSW 9 12 - - - - - - - 16.6 1026.3 0.0
29/03:00am SSW 9 14 - - - - - - - 16.9 1026.2 0.0
29/02:30am SSW 9 12 - - - - - - - 17.1 1026.0 0.0
29/02:00am SSW 9 12 - - - - - - - 17.3 1026.0 0.0
29/01:30am SSW 9 13 - - - - - - - 17.8 1026.2 0.0
29/01:00am SW 8 11 - - - - - - - 17.5 1026.3 0.0
29/12:30am SW 7 10 - - - - - - - 17.5 1026.5 0.0
29/12:00am SSW 7 9 - - - - - - - 17.4 1026.7 0.0
 
Date/Time
EST
Wind Sea
Height
m
Swell Vis
km
Cloud Weather Temp
°C
Press
MSL
hPa
Rain since
9am
mm
Dir  Spd
kts
Gust
kts
Height
m
Period
s
Dir
28/11:30pm SSW 8 11 - - - - - - - 17.9 1026.7 0.0
28/11:00pm SSW 8 11 - - - - - - - 18.2 1026.8 0.0
28/10:30pm SSW 8 12 - - - - - - - 18.2 1026.9 0.0
28/10:00pm SSW 10 14 - - - - - - - 18.7 1026.9 0.0
28/09:30pm S 13 15 - - - - - - - 19.2 1027.0 0.0
28/09:00pm S 11 14 - - - - - - - 19.1 1027.1 0.0
28/08:30pm S 14 17 - - - - - - - 18.9 1027.1 0.0
28/08:00pm S 13 15 - - - - - - - 18.9 1026.9 0.0
28/07:30pm S 8 10 - - - - - - - 18.8 1026.6 0.0
28/07:00pm SSW 7 9 - - - - - - - 19.1 1026.3 0.0
28/06:30pm S 8 10 - - - - - - - 19.7 1026.1 0.0
28/06:00pm SSE 9 10 - - - - - - - 20.1 1025.7 0.0
28/05:30pm S 9 10 - - - - - - - 19.8 1025.4 0.0
28/05:00pm SSE 16 19 - - - - - - - 20.3 1025.2 0.0
28/04:55pm SSE 15 19 - - - - - - - 20.4 1025.2 0.0
28/04:30pm SSE 7 8 - - - - - - - 20.8 1025.0 0.0
28/04:00pm S 8 9 - - - - - - - 21.3 1024.8 0.0
28/03:30pm SSW 6 8 - - - - - - - 21.9 1024.7 0.0
28/03:00pm SSW 7 11 - - - - - - - 22.6 1024.7 0.0
28/02:30pm SSW 7 9 - - - - - - - 22.1 1024.6 0.0
28/02:00pm SW 7 10 - - - - - - - 21.1 1024.7 0.0
28/01:30pm SSW 7 10 - - - - - - - 22.0 1024.9 0.0
28/01:00pm SSW 7 10 - - - - - - - 20.5 1024.9 0.0
28/12:30pm SW 8 11 - - - - - - - 20.5 1025.4 0.0
28/12:00pm SSW 9 12 - - - - - - - 21.0 1025.8 0.0
28/11:30am SSW 7 10 - - - - - - - 20.4 1026.1 0.0
28/11:00am SSW 6 8 - - - - - - - 19.6 1026.5 0.0
28/10:30am S 9 11 - - - - - - - 18.7 1026.8 0.0
28/10:00am S 12 16 - - - - - - - 18.8 1027.1 0.0
28/09:30am SSW 11 16 - - - - - - - 18.8 1026.8 0.0
28/09:00am SSE 14 16 - - - - - - - 18.2 1026.8 0.0
28/08:30am SSW 9 13 - - - - - - - 17.9 1026.5 0.0
28/08:00am SSW 9 12 - - - - - - - 17.1 1026.0 0.0
28/07:30am SSW 7 10 - - - - - - - 16.5 1025.7 0.0
28/07:00am SSW 9 13 - - - - - - - 16.6 1025.5 0.0
28/06:30am SSW 8 11 - - - - - - - 16.4 1025.2 0.0
28/06:00am SSW 7 10 - - - - - - - 15.6 1024.9 0.0
28/05:30am S 9 12 - - - - - - - 15.2 1024.5 0.0
28/05:00am SW 6 9 - - - - - - - 15.2 1024.1 0.0
28/04:30am SW 8 9 - - - - - - - 15.0 1023.9 0.0
28/04:00am SW 7 8 - - - - - - - 15.3 1023.9 0.0
28/03:30am SW 8 10 - - - - - - - 15.6 1023.9 0.0
28/03:00am SW 6 8 - - - - - - - 15.6 1023.8 0.0
28/02:30am SW 7 8 - - - - - - - 15.6 1024.0 0.0
28/02:00am SW 7 9 - - - - - - - 15.7 1024.0 0.0
28/01:30am SW 6 7 - - - - - - - 15.8 1024.2 0.0
28/01:00am SW 7 8 - - - - - - - 16.2 1024.3 0.0
28/12:30am WSW 7 8 - - - - - - - 16.6 1024.3 0.0
28/12:00am SW 6 8 - - - - - - - 16.6 1024.3 0.0
 
Date/Time
EST
Wind Sea
Height
m
Swell Vis
km
Cloud Weather Temp
°C
Press
MSL
hPa
Rain since
9am
mm
Dir  Spd
kts
Gust
kts
Height
m
Period
s
Dir
27/11:30pm WSW 7 9 - - - - - - - 16.4 1024.4 0.0
27/11:00pm WSW 7 8 - - - - - - - 16.2 1024.4 0.0
27/10:30pm WSW 7 8 - - - - - - - 16.2 1024.4 0.0
27/10:00pm WSW 7 8 - - - - - - - 16.2 1024.3 0.0
27/09:30pm WSW 6 7 - - - - - - - 16.3 1024.2 0.0
27/09:00pm WSW 5 6 - - - - - - - 16.7 1024.2 0.0

Other formats

Comma delimited format used in spreadsheet applications
http://www.bom.gov.au/fwo/IDQ60701/IDQ60701.95591.axf

JavaScript Object Notation format (JSON) in row-major order
http://www.bom.gov.au/fwo/IDQ60701/IDQ60701.95591.json

Data quality

Most of these data are generated automatically and are frequently updated. Quality checks on data are not normally performed. It is possible for incorrect values to appear. Refer to information at About Latest Weather Observations and please check the disclaimer before using these data.